sensor_id;sensor_type;location;lat;lon;timestamp;P1;durP1;ratioP1;P2;durP2;ratioP2
23181;SDS011;11759;51.282;6.642;2022-09-09T00:00:32;5.65;;;2.08;;
23181;SDS011;11759;51.282;6.642;2022-09-09T00:03:02;12.55;;;2.00;;
23181;SDS011;11759;51.282;6.642;2022-09-09T00:05:44;4.82;;;2.15;;
23181;SDS011;11759;51.282;6.642;2022-09-09T00:08:19;5.35;;;2.20;;
23181;SDS011;11759;51.282;6.642;2022-09-09T00:10:51;8.73;;;2.30;;
23181;SDS011;11759;51.282;6.642;2022-09-09T00:13:24;5.55;;;1.77;;
23181;SDS011;11759;51.282;6.642;2022-09-09T00:24:10;8.82;;;2.40;;
23181;SDS011;11759;51.282;6.642;2022-09-09T00:26:48;5.43;;;1.98;;
23181;SDS011;11759;51.282;6.642;2022-09-09T00:29:28;5.57;;;2.47;;
23181;SDS011;11759;51.282;6.642;2022-09-09T00:32:11;6.15;;;2.50;;
23181;SDS011;11759;51.282;6.642;2022-09-09T00:34:51;11.43;;;3.22;;
23181;SDS011;11759;51.282;6.642;2022-09-09T00:37:20;9.13;;;4.35;;
23181;SDS011;11759;51.282;6.642;2022-09-09T00:39:51;7.97;;;5.05;;
23181;SDS011;11759;51.282;6.642;2022-09-09T00:42:24;13.55;;;5.15;;
23181;SDS011;11759;51.282;6.642;2022-09-09T00:53:19;35.20;;;17.45;;
23181;SDS011;11759;51.282;6.642;2022-09-09T00:58:55;52.45;;;22.95;;
23181;SDS011;11759;51.282;6.642;2022-09-09T01:01:36;32.33;;;12.98;;
23181;SDS011;11759;51.282;6.642;2022-09-09T01:04:08;24.13;;;10.60;;
23181;SDS011;11759;51.282;6.642;2022-09-09T01:06:42;23.25;;;8.68;;
23181;SDS011;11759;51.282;6.642;2022-09-09T01:12:23;9.25;;;6.03;;
23181;SDS011;11759;51.282;6.642;2022-09-09T01:15:03;12.35;;;4.60;;
23181;SDS011;11759;51.282;6.642;2022-09-09T01:17:32;19.77;;;4.88;;
23181;SDS011;11759;51.282;6.642;2022-09-09T01:20:13;14.30;;;4.50;;
23181;SDS011;11759;51.282;6.642;2022-09-09T01:28:31;7.20;;;3.55;;
23181;SDS011;11759;51.282;6.642;2022-09-09T01:31:05;15.27;;;3.75;;
23181;SDS011;11759;51.282;6.642;2022-09-09T01:33:40;10.05;;;3.78;;
23181;SDS011;11759;51.282;6.642;2022-09-09T01:38:46;10.00;;;3.40;;
23181;SDS011;11759;51.282;6.642;2022-09-09T01:41:13;9.93;;;3.33;;
23181;SDS011;11759;51.282;6.642;2022-09-09T01:43:58;13.35;;;3.25;;
23181;SDS011;11759;51.282;6.642;2022-09-09T01:46:25;12.55;;;3.22;;
23181;SDS011;11759;51.282;6.642;2022-09-09T01:48:55;11.48;;;2.92;;
23181;SDS011;11759;51.282;6.642;2022-09-09T01:51:22;13.93;;;3.60;;
23181;SDS011;11759;51.282;6.642;2022-09-09T01:53:50;13.05;;;3.20;;
23181;SDS011;11759;51.282;6.642;2022-09-09T02:01:40;11.38;;;3.55;;
23181;SDS011;11759;51.282;6.642;2022-09-09T02:07:11;9.57;;;3.65;;
23181;SDS011;11759;51.282;6.642;2022-09-09T02:09:47;18.08;;;3.92;;
23181;SDS011;11759;51.282;6.642;2022-09-09T02:12:18;9.82;;;3.35;;
23181;SDS011;11759;51.282;6.642;2022-09-09T02:14:59;12.88;;;3.50;;
23181;SDS011;11759;51.282;6.642;2022-09-09T02:17:39;11.60;;;3.63;;
23181;SDS011;11759;51.282;6.642;2022-09-09T02:20:13;10.15;;;3.55;;
23181;SDS011;11759;51.282;6.642;2022-09-09T02:22:49;11.43;;;4.00;;
23181;SDS011;11759;51.282;6.642;2022-09-09T02:25:19;15.57;;;3.72;;
23181;SDS011;11759;51.282;6.642;2022-09-09T02:27:49;8.23;;;3.60;;
23181;SDS011;11759;51.282;6.642;2022-09-09T02:30:18;10.50;;;3.58;;
23181;SDS011;11759;51.282;6.642;2022-09-09T02:32:52;16.58;;;3.38;;
23181;SDS011;11759;51.282;6.642;2022-09-09T02:35:21;11.05;;;3.13;;
23181;SDS011;11759;51.282;6.642;2022-09-09T02:37:51;14.32;;;3.22;;
23181;SDS011;11759;51.282;6.642;2022-09-09T02:40:19;14.57;;;3.38;;
23181;SDS011;11759;51.282;6.642;2022-09-09T02:42:54;14.70;;;3.20;;
23181;SDS011;11759;51.282;6.642;2022-09-09T02:45:25;13.60;;;3.65;;
23181;SDS011;11759;51.282;6.642;2022-09-09T02:50:52;10.82;;;3.17;;
23181;SDS011;11759;51.282;6.642;2022-09-09T02:53:40;13.00;;;3.17;;
23181;SDS011;11759;51.282;6.642;2022-09-09T02:58:46;16.00;;;3.35;;
23181;SDS011;11759;51.282;6.642;2022-09-09T03:01:13;10.02;;;3.15;;
23181;SDS011;11759;51.282;6.642;2022-09-09T03:03:41;9.52;;;3.33;;
23181;SDS011;11759;51.282;6.642;2022-09-09T03:08:39;11.23;;;3.25;;
23181;SDS011;11759;51.282;6.642;2022-09-09T03:11:07;14.98;;;3.20;;
23181;SDS011;11759;51.282;6.642;2022-09-09T03:13:36;12.32;;;3.30;;
23181;SDS011;11759;51.282;6.642;2022-09-09T03:16:04;8.98;;;2.95;;
23181;SDS011;11759;51.282;6.642;2022-09-09T03:18:37;19.10;;;3.70;;
23181;SDS011;11759;51.282;6.642;2022-09-09T03:21:04;10.65;;;3.60;;
23181;SDS011;11759;51.282;6.642;2022-09-09T03:23:30;13.32;;;3.15;;
23181;SDS011;11759;51.282;6.642;2022-09-09T03:26:00;10.63;;;3.47;;
23181;SDS011;11759;51.282;6.642;2022-09-09T03:28:36;11.25;;;3.10;;
23181;SDS011;11759;51.282;6.642;2022-09-09T03:31:04;13.82;;;3.45;;
23181;SDS011;11759;51.282;6.642;2022-09-09T03:33:37;13.63;;;3.03;;
23181;SDS011;11759;51.282;6.642;2022-09-09T03:36:05;13.68;;;3.15;;
23181;SDS011;11759;51.282;6.642;2022-09-09T03:38:31;12.40;;;2.90;;
23181;SDS011;11759;51.282;6.642;2022-09-09T03:40:59;15.52;;;3.60;;
23181;SDS011;11759;51.282;6.642;2022-09-09T03:43:29;18.73;;;3.60;;
23181;SDS011;11759;51.282;6.642;2022-09-09T03:45:56;17.00;;;3.45;;
23181;SDS011;11759;51.282;6.642;2022-09-09T03:48:25;14.90;;;3.92;;
23181;SDS011;11759;51.282;6.642;2022-09-09T03:50:54;18.73;;;3.90;;
23181;SDS011;11759;51.282;6.642;2022-09-09T03:53:28;18.95;;;4.32;;
23181;SDS011;11759;51.282;6.642;2022-09-09T03:55:56;10.40;;;3.40;;
23181;SDS011;11759;51.282;6.642;2022-09-09T03:58:26;17.90;;;3.67;;
23181;SDS011;11759;51.282;6.642;2022-09-09T04:00:59;14.80;;;4.07;;
23181;SDS011;11759;51.282;6.642;2022-09-09T04:03:27;14.70;;;3.67;;
23181;SDS011;11759;51.282;6.642;2022-09-09T04:05:55;15.52;;;3.60;;
23181;SDS011;11759;51.282;6.642;2022-09-09T04:08:24;18.75;;;4.18;;
23181;SDS011;11759;51.282;6.642;2022-09-09T04:10:54;11.05;;;3.60;;
23181;SDS011;11759;51.282;6.642;2022-09-09T04:13:25;16.55;;;3.72;;
23181;SDS011;11759;51.282;6.642;2022-09-09T04:15:56;10.40;;;3.40;;
23181;SDS011;11759;51.282;6.642;2022-09-09T04:18:25;18.08;;;4.28;;
23181;SDS011;11759;51.282;6.642;2022-09-09T04:20:52;14.43;;;4.10;;
23181;SDS011;11759;51.282;6.642;2022-09-09T04:23:22;11.48;;;3.58;;
23181;SDS011;11759;51.282;6.642;2022-09-09T04:25:51;14.55;;;4.40;;
23181;SDS011;11759;51.282;6.642;2022-09-09T04:28:18;14.68;;;3.97;;
23181;SDS011;11759;51.282;6.642;2022-09-09T04:30:46;19.20;;;4.80;;
23181;SDS011;11759;51.282;6.642;2022-09-09T04:33:13;22.65;;;4.50;;
23181;SDS011;11759;51.282;6.642;2022-09-09T04:35:47;11.05;;;4.20;;
23181;SDS011;11759;51.282;6.642;2022-09-09T04:38:17;16.27;;;4.55;;
23181;SDS011;11759;51.282;6.642;2022-09-09T04:40:47;16.15;;;4.53;;
23181;SDS011;11759;51.282;6.642;2022-09-09T04:43:14;26.30;;;4.70;;
23181;SDS011;11759;51.282;6.642;2022-09-09T04:45:42;16.83;;;3.97;;
23181;SDS011;11759;51.282;6.642;2022-09-09T04:48:09;16.88;;;4.32;;
23181;SDS011;11759;51.282;6.642;2022-09-09T04:50:36;14.18;;;4.53;;
23181;SDS011;11759;51.282;6.642;2022-09-09T04:53:03;13.77;;;4.45;;
23181;SDS011;11759;51.282;6.642;2022-09-09T04:55:33;18.67;;;4.72;;
23181;SDS011;11759;51.282;6.642;2022-09-09T04:58:04;16.67;;;4.30;;
23181;SDS011;11759;51.282;6.642;2022-09-09T05:00:32;25.58;;;4.65;;
23181;SDS011;11759;51.282;6.642;2022-09-09T05:03:04;16.95;;;4.72;;
23181;SDS011;11759;51.282;6.642;2022-09-09T05:05:32;22.98;;;4.90;;
23181;SDS011;11759;51.282;6.642;2022-09-09T05:08:06;18.50;;;4.68;;
23181;SDS011;11759;51.282;6.642;2022-09-09T05:10:36;21.13;;;4.80;;
23181;SDS011;11759;51.282;6.642;2022-09-09T05:13:04;18.23;;;4.65;;
23181;SDS011;11759;51.282;6.642;2022-09-09T05:15:31;15.65;;;4.35;;
23181;SDS011;11759;51.282;6.642;2022-09-09T05:17:58;20.35;;;4.90;;
23181;SDS011;11759;51.282;6.642;2022-09-09T05:20:28;32.38;;;5.15;;
23181;SDS011;11759;51.282;6.642;2022-09-09T05:22:55;14.70;;;4.53;;
23181;SDS011;11759;51.282;6.642;2022-09-09T05:25:25;20.23;;;4.80;;
23181;SDS011;11759;51.282;6.642;2022-09-09T05:27:53;23.38;;;4.78;;
23181;SDS011;11759;51.282;6.642;2022-09-09T05:30:21;13.50;;;4.10;;
23181;SDS011;11759;51.282;6.642;2022-09-09T05:32:50;12.43;;;4.28;;
23181;SDS011;11759;51.282;6.642;2022-09-09T05:35:17;16.23;;;4.30;;
23181;SDS011;11759;51.282;6.642;2022-09-09T05:37:45;14.25;;;4.35;;
23181;SDS011;11759;51.282;6.642;2022-09-09T05:40:12;16.40;;;4.22;;
23181;SDS011;11759;51.282;6.642;2022-09-09T05:42:39;14.68;;;4.13;;
23181;SDS011;11759;51.282;6.642;2022-09-09T05:45:07;20.90;;;4.75;;
23181;SDS011;11759;51.282;6.642;2022-09-09T05:47:35;14.60;;;3.85;;
23181;SDS011;11759;51.282;6.642;2022-09-09T05:50:06;17.80;;;5.00;;
23181;SDS011;11759;51.282;6.642;2022-09-09T05:52:33;20.25;;;5.03;;
23181;SDS011;11759;51.282;6.642;2022-09-09T05:55:00;14.63;;;5.55;;
23181;SDS011;11759;51.282;6.642;2022-09-09T05:57:27;21.08;;;4.80;;
23181;SDS011;11759;51.282;6.642;2022-09-09T05:59:54;10.73;;;4.32;;
23181;SDS011;11759;51.282;6.642;2022-09-09T06:02:21;18.38;;;5.13;;
23181;SDS011;11759;51.282;6.642;2022-09-09T06:04:48;29.85;;;4.53;;
23181;SDS011;11759;51.282;6.642;2022-09-09T06:07:15;23.88;;;4.25;;
23181;SDS011;11759;51.282;6.642;2022-09-09T06:09:41;22.80;;;5.35;;
23181;SDS011;11759;51.282;6.642;2022-09-09T06:12:08;17.52;;;4.18;;
23181;SDS011;11759;51.282;6.642;2022-09-09T06:14:35;15.25;;;4.53;;
23181;SDS011;11759;51.282;6.642;2022-09-09T06:17:03;13.35;;;4.50;;
23181;SDS011;11759;51.282;6.642;2022-09-09T06:19:30;13.75;;;4.82;;
23181;SDS011;11759;51.282;6.642;2022-09-09T06:21:58;17.90;;;4.13;;
23181;SDS011;11759;51.282;6.642;2022-09-09T06:24:26;18.95;;;4.63;;
23181;SDS011;11759;51.282;6.642;2022-09-09T06:26:53;20.40;;;4.53;;
23181;SDS011;11759;51.282;6.642;2022-09-09T06:29:25;23.17;;;4.85;;
23181;SDS011;11759;51.282;6.642;2022-09-09T06:31:52;21.83;;;5.05;;
23181;SDS011;11759;51.282;6.642;2022-09-09T06:34:21;25.90;;;4.90;;
23181;SDS011;11759;51.282;6.642;2022-09-09T06:36:51;23.75;;;4.00;;
23181;SDS011;11759;51.282;6.642;2022-09-09T06:39:18;22.50;;;4.28;;
23181;SDS011;11759;51.282;6.642;2022-09-09T06:41:45;18.83;;;4.03;;
23181;SDS011;11759;51.282;6.642;2022-09-09T06:44:37;14.77;;;3.30;;
23181;SDS011;11759;51.282;6.642;2022-09-09T06:47:07;11.32;;;2.88;;
23181;SDS011;11759;51.282;6.642;2022-09-09T06:49:34;16.40;;;2.75;;
23181;SDS011;11759;51.282;6.642;2022-09-09T06:52:04;14.38;;;2.90;;
23181;SDS011;11759;51.282;6.642;2022-09-09T06:54:31;14.18;;;2.30;;
23181;SDS011;11759;51.282;6.642;2022-09-09T06:56:57;15.32;;;2.97;;
23181;SDS011;11759;51.282;6.642;2022-09-09T06:59:48;11.50;;;2.22;;
23181;SDS011;11759;51.282;6.642;2022-09-09T07:02:15;10.02;;;2.30;;
23181;SDS011;11759;51.282;6.642;2022-09-09T07:04:42;9.65;;;2.20;;
23181;SDS011;11759;51.282;6.642;2022-09-09T07:07:09;12.95;;;2.50;;
23181;SDS011;11759;51.282;6.642;2022-09-09T07:09:38;12.88;;;2.20;;
23181;SDS011;11759;51.282;6.642;2022-09-09T07:12:04;12.32;;;2.20;;
23181;SDS011;11759;51.282;6.642;2022-09-09T07:14:33;13.40;;;2.17;;
23181;SDS011;11759;51.282;6.642;2022-09-09T07:17:03;13.80;;;2.47;;
23181;SDS011;11759;51.282;6.642;2022-09-09T07:19:35;12.20;;;2.47;;
23181;SDS011;11759;51.282;6.642;2022-09-09T07:22:03;13.65;;;2.55;;
23181;SDS011;11759;51.282;6.642;2022-09-09T07:24:34;11.57;;;2.10;;
23181;SDS011;11759;51.282;6.642;2022-09-09T07:27:01;10.20;;;1.85;;
23181;SDS011;11759;51.282;6.642;2022-09-09T07:29:29;10.20;;;2.33;;
23181;SDS011;11759;51.282;6.642;2022-09-09T07:31:56;10.38;;;1.77;;
23181;SDS011;11759;51.282;6.642;2022-09-09T07:34:28;12.52;;;1.90;;
23181;SDS011;11759;51.282;6.642;2022-09-09T07:36:56;7.53;;;1.70;;
23181;SDS011;11759;51.282;6.642;2022-09-09T07:39:23;11.32;;;1.70;;
23181;SDS011;11759;51.282;6.642;2022-09-09T07:41:52;7.75;;;2.35;;
23181;SDS011;11759;51.282;6.642;2022-09-09T07:44:22;14.02;;;2.05;;
23181;SDS011;11759;51.282;6.642;2022-09-09T07:46:58;14.70;;;2.42;;
23181;SDS011;11759;51.282;6.642;2022-09-09T07:49:30;13.00;;;2.00;;
23181;SDS011;11759;51.282;6.642;2022-09-09T07:51:59;11.75;;;2.20;;
23181;SDS011;11759;51.282;6.642;2022-09-09T07:54:27;10.23;;;2.03;;
23181;SDS011;11759;51.282;6.642;2022-09-09T07:56:53;10.15;;;2.03;;
23181;SDS011;11759;51.282;6.642;2022-09-09T07:59:23;6.13;;;2.08;;
23181;SDS011;11759;51.282;6.642;2022-09-09T08:01:52;7.55;;;2.00;;
23181;SDS011;11759;51.282;6.642;2022-09-09T08:04:24;16.13;;;2.50;;
23181;SDS011;11759;51.282;6.642;2022-09-09T08:06:52;17.58;;;2.80;;
23181;SDS011;11759;51.282;6.642;2022-09-09T08:09:22;11.23;;;1.90;;
23181;SDS011;11759;51.282;6.642;2022-09-09T08:12:01;12.20;;;1.75;;
23181;SDS011;11759;51.282;6.642;2022-09-09T08:14:29;16.13;;;1.88;;
23181;SDS011;11759;51.282;6.642;2022-09-09T08:16:56;9.95;;;2.70;;
23181;SDS011;11759;51.282;6.642;2022-09-09T08:19:26;10.35;;;2.05;;
23181;SDS011;11759;51.282;6.642;2022-09-09T08:21:56;9.60;;;1.80;;
23181;SDS011;11759;51.282;6.642;2022-09-09T08:24:23;7.78;;;2.00;;
23181;SDS011;11759;51.282;6.642;2022-09-09T08:26:51;10.52;;;1.70;;
23181;SDS011;11759;51.282;6.642;2022-09-09T08:29:22;12.50;;;1.90;;
23181;SDS011;11759;51.282;6.642;2022-09-09T08:31:52;7.85;;;1.40;;
23181;SDS011;11759;51.282;6.642;2022-09-09T08:34:20;8.35;;;1.65;;
23181;SDS011;11759;51.282;6.642;2022-09-09T08:36:49;13.50;;;1.67;;
23181;SDS011;11759;51.282;6.642;2022-09-09T08:39:20;10.88;;;1.60;;
23181;SDS011;11759;51.282;6.642;2022-09-09T08:41:56;8.20;;;1.60;;
23181;SDS011;11759;51.282;6.642;2022-09-09T08:47:46;5.13;;;1.30;;
23181;SDS011;11759;51.282;6.642;2022-09-09T08:50:26;5.13;;;1.42;;
23181;SDS011;11759;51.282;6.642;2022-09-09T08:58:23;8.98;;;1.70;;
23181;SDS011;11759;51.282;6.642;2022-09-09T09:03:42;8.85;;;1.70;;
23181;SDS011;11759;51.282;6.642;2022-09-09T09:11:53;8.80;;;1.33;;
23181;SDS011;11759;51.282;6.642;2022-09-09T09:14:23;6.28;;;1.20;;
23181;SDS011;11759;51.282;6.642;2022-09-09T09:17:00;11.57;;;1.80;;
23181;SDS011;11759;51.282;6.642;2022-09-09T09:19:33;4.15;;;1.38;;
23181;SDS011;11759;51.282;6.642;2022-09-09T09:27:29;5.13;;;1.60;;
23181;SDS011;11759;51.282;6.642;2022-09-09T09:30:22;6.97;;;1.50;;
23181;SDS011;11759;51.282;6.642;2022-09-09T09:33:01;8.30;;;1.58;;
23181;SDS011;11759;51.282;6.642;2022-09-09T09:35:29;7.82;;;1.42;;
23181;SDS011;11759;51.282;6.642;2022-09-09T09:37:56;13.65;;;1.65;;
23181;SDS011;11759;51.282;6.642;2022-09-09T09:40:50;5.32;;;0.98;;
23181;SDS011;11759;51.282;6.642;2022-09-09T09:43:28;9.43;;;1.83;;
23181;SDS011;11759;51.282;6.642;2022-09-09T09:45:59;10.52;;;1.27;;
23181;SDS011;11759;51.282;6.642;2022-09-09T09:48:42;5.07;;;1.10;;
23181;SDS011;11759;51.282;6.642;2022-09-09T09:51:10;5.72;;;1.10;;
23181;SDS011;11759;51.282;6.642;2022-09-09T09:56:10;7.03;;;1.25;;
23181;SDS011;11759;51.282;6.642;2022-09-09T10:01:27;7.10;;;1.55;;
23181;SDS011;11759;51.282;6.642;2022-09-09T10:06:30;5.40;;;1.00;;
23181;SDS011;11759;51.282;6.642;2022-09-09T10:08:58;6.63;;;1.40;;
23181;SDS011;11759;51.282;6.642;2022-09-09T10:11:40;7.18;;;1.67;;
23181;SDS011;11759;51.282;6.642;2022-09-09T10:30:22;5.85;;;1.10;;
23181;SDS011;11759;51.282;6.642;2022-09-09T10:32:57;6.13;;;1.20;;
23181;SDS011;11759;51.282;6.642;2022-09-09T10:35:50;3.22;;;0.77;;
23181;SDS011;11759;51.282;6.642;2022-09-09T10:38:25;4.70;;;1.00;;
23181;SDS011;11759;51.282;6.642;2022-09-09T10:44:28;8.15;;;1.15;;
23181;SDS011;11759;51.282;6.642;2022-09-09T10:50:03;4.75;;;1.05;;
23181;SDS011;11759;51.282;6.642;2022-09-09T10:55:18;3.17;;;1.10;;
23181;SDS011;11759;51.282;6.642;2022-09-09T10:57:47;6.60;;;1.05;;
23181;SDS011;11759;51.282;6.642;2022-09-09T11:00:19;6.15;;;1.00;;
23181;SDS011;11759;51.282;6.642;2022-09-09T11:02:51;4.13;;;1.35;;
23181;SDS011;11759;51.282;6.642;2022-09-09T11:05:22;4.55;;;0.95;;
23181;SDS011;11759;51.282;6.642;2022-09-09T11:07:58;6.45;;;1.05;;
23181;SDS011;11759;51.282;6.642;2022-09-09T11:10:44;3.30;;;1.10;;
23181;SDS011;11759;51.282;6.642;2022-09-09T11:13:20;8.48;;;1.20;;
23181;SDS011;11759;51.282;6.642;2022-09-09T11:15:53;5.18;;;0.88;;
23181;SDS011;11759;51.282;6.642;2022-09-09T11:20:54;4.82;;;0.93;;
23181;SDS011;11759;51.282;6.642;2022-09-09T11:23:32;4.65;;;1.02;;
23181;SDS011;11759;51.282;6.642;2022-09-09T11:26:07;3.60;;;0.88;;
23181;SDS011;11759;51.282;6.642;2022-09-09T11:28:51;7.75;;;1.30;;
23181;SDS011;11759;51.282;6.642;2022-09-09T11:34:33;2.85;;;0.60;;
23181;SDS011;11759;51.282;6.642;2022-09-09T11:37:21;4.80;;;0.80;;
23181;SDS011;11759;51.282;6.642;2022-09-09T11:43:11;6.35;;;1.15;;
23181;SDS011;11759;51.282;6.642;2022-09-09T11:45:39;6.32;;;1.15;;
23181;SDS011;11759;51.282;6.642;2022-09-09T11:48:22;5.28;;;0.93;;
23181;SDS011;11759;51.282;6.642;2022-09-09T11:51:00;5.55;;;1.05;;
23181;SDS011;11759;51.282;6.642;2022-09-09T11:53:49;4.82;;;1.05;;
23181;SDS011;11759;51.282;6.642;2022-09-09T11:56:27;4.57;;;1.00;;
23181;SDS011;11759;51.282;6.642;2022-09-09T11:59:02;8.80;;;0.82;;
23181;SDS011;11759;51.282;6.642;2022-09-09T12:01:38;6.22;;;0.98;;
23181;SDS011;11759;51.282;6.642;2022-09-09T12:04:15;4.22;;;0.80;;
23181;SDS011;11759;51.282;6.642;2022-09-09T12:07:00;4.75;;;1.00;;
23181;SDS011;11759;51.282;6.642;2022-09-09T12:09:48;4.25;;;1.10;;
23181;SDS011;11759;51.282;6.642;2022-09-09T12:15:16;4.82;;;0.90;;
23181;SDS011;11759;51.282;6.642;2022-09-09T12:17:55;5.93;;;0.82;;
23181;SDS011;11759;51.282;6.642;2022-09-09T12:25:52;5.07;;;0.80;;
23181;SDS011;11759;51.282;6.642;2022-09-09T12:34:02;3.35;;;0.98;;
23181;SDS011;11759;51.282;6.642;2022-09-09T12:36:32;2.75;;;1.00;;
23181;SDS011;11759;51.282;6.642;2022-09-09T12:39:09;5.25;;;1.27;;
23181;SDS011;11759;51.282;6.642;2022-09-09T12:41:37;4.90;;;1.20;;
23181;SDS011;11759;51.282;6.642;2022-09-09T12:44:04;6.40;;;1.27;;
23181;SDS011;11759;51.282;6.642;2022-09-09T12:49:20;5.97;;;1.50;;
23181;SDS011;11759;51.282;6.642;2022-09-09T12:54:33;9.00;;;1.67;;
23181;SDS011;11759;51.282;6.642;2022-09-09T12:57:01;7.25;;;1.70;;
23181;SDS011;11759;51.282;6.642;2022-09-09T12:59:35;6.50;;;1.75;;
23181;SDS011;11759;51.282;6.642;2022-09-09T13:02:11;6.57;;;1.98;;
23181;SDS011;11759;51.282;6.642;2022-09-09T13:04:43;5.32;;;1.90;;
23181;SDS011;11759;51.282;6.642;2022-09-09T13:07:13;6.70;;;2.17;;
23181;SDS011;11759;51.282;6.642;2022-09-09T13:09:42;6.78;;;1.90;;
23181;SDS011;11759;51.282;6.642;2022-09-09T13:12:13;5.60;;;2.00;;
23181;SDS011;11759;51.282;6.642;2022-09-09T13:14:46;6.53;;;1.80;;
23181;SDS011;11759;51.282;6.642;2022-09-09T13:17:17;8.80;;;1.90;;
23181;SDS011;11759;51.282;6.642;2022-09-09T13:19:48;5.68;;;1.70;;
23181;SDS011;11759;51.282;6.642;2022-09-09T13:22:30;4.80;;;1.67;;
23181;SDS011;11759;51.282;6.642;2022-09-09T13:25:01;5.10;;;1.63;;
23181;SDS011;11759;51.282;6.642;2022-09-09T13:28:18;4.05;;;1.60;;
23181;SDS011;11759;51.282;6.642;2022-09-09T13:30:36;8.27;;;1.58;;
23181;SDS011;11759;51.282;6.642;2022-09-09T13:35:44;6.20;;;1.58;;
23181;SDS011;11759;51.282;6.642;2022-09-09T13:38:13;10.63;;;1.35;;
23181;SDS011;11759;51.282;6.642;2022-09-09T13:40:51;4.82;;;1.50;;
23181;SDS011;11759;51.282;6.642;2022-09-09T13:43:28;6.78;;;1.73;;
23181;SDS011;11759;51.282;6.642;2022-09-09T13:45:58;3.35;;;1.77;;
23181;SDS011;11759;51.282;6.642;2022-09-09T13:48:27;8.03;;;1.87;;
23181;SDS011;11759;51.282;6.642;2022-09-09T13:50:55;10.23;;;1.98;;
23181;SDS011;11759;51.282;6.642;2022-09-09T13:53:31;4.88;;;1.58;;
23181;SDS011;11759;51.282;6.642;2022-09-09T13:55:58;7.28;;;1.70;;
23181;SDS011;11759;51.282;6.642;2022-09-09T13:58:25;6.47;;;1.73;;
23181;SDS011;11759;51.282;6.642;2022-09-09T14:00:52;5.57;;;1.50;;
23181;SDS011;11759;51.282;6.642;2022-09-09T14:03:19;7.97;;;1.42;;
23181;SDS011;11759;51.282;6.642;2022-09-09T14:05:47;5.10;;;1.42;;
23181;SDS011;11759;51.282;6.642;2022-09-09T14:08:20;5.15;;;1.30;;
23181;SDS011;11759;51.282;6.642;2022-09-09T14:10:49;4.60;;;1.40;;
23181;SDS011;11759;51.282;6.642;2022-09-09T14:13:15;9.93;;;1.42;;
23181;SDS011;11759;51.282;6.642;2022-09-09T14:15:42;2.38;;;1.10;;
23181;SDS011;11759;51.282;6.642;2022-09-09T14:18:09;3.95;;;1.08;;
23181;SDS011;11759;51.282;6.642;2022-09-09T14:20:38;2.67;;;1.17;;
23181;SDS011;11759;51.282;6.642;2022-09-09T14:23:04;4.35;;;0.60;;
23181;SDS011;11759;51.282;6.642;2022-09-09T14:25:31;0.98;;;0.30;;
23181;SDS011;11759;51.282;6.642;2022-09-09T14:27:58;3.63;;;0.45;;
23181;SDS011;11759;51.282;6.642;2022-09-09T14:30:24;3.92;;;0.70;;
23181;SDS011;11759;51.282;6.642;2022-09-09T14:32:51;2.92;;;0.77;;
23181;SDS011;11759;51.282;6.642;2022-09-09T14:35:17;1.67;;;0.68;;
23181;SDS011;11759;51.282;6.642;2022-09-09T14:37:44;5.13;;;0.90;;
23181;SDS011;11759;51.282;6.642;2022-09-09T14:40:11;1.98;;;0.70;;
23181;SDS011;11759;51.282;6.642;2022-09-09T14:42:38;5.15;;;1.10;;
23181;SDS011;11759;51.282;6.642;2022-09-09T14:45:04;5.75;;;1.00;;
23181;SDS011;11759;51.282;6.642;2022-09-09T14:47:31;4.50;;;1.00;;
23181;SDS011;11759;51.282;6.642;2022-09-09T14:49:58;5.75;;;1.10;;
23181;SDS011;11759;51.282;6.642;2022-09-09T14:52:27;1.90;;;1.02;;
23181;SDS011;11759;51.282;6.642;2022-09-09T14:54:55;2.20;;;1.10;;
23181;SDS011;11759;51.282;6.642;2022-09-09T14:57:22;4.38;;;1.60;;
23181;SDS011;11759;51.282;6.642;2022-09-09T14:59:49;3.60;;;1.23;;
23181;SDS011;11759;51.282;6.642;2022-09-09T15:02:16;5.18;;;1.30;;
23181;SDS011;11759;51.282;6.642;2022-09-09T15:04:43;4.65;;;1.30;;
23181;SDS011;11759;51.282;6.642;2022-09-09T15:07:10;6.47;;;1.58;;
23181;SDS011;11759;51.282;6.642;2022-09-09T15:09:37;4.35;;;1.20;;
23181;SDS011;11759;51.282;6.642;2022-09-09T15:12:03;5.00;;;1.27;;
23181;SDS011;11759;51.282;6.642;2022-09-09T15:14:31;6.43;;;1.30;;
23181;SDS011;11759;51.282;6.642;2022-09-09T15:16:57;2.80;;;1.25;;
23181;SDS011;11759;51.282;6.642;2022-09-09T15:19:24;7.68;;;1.33;;
23181;SDS011;11759;51.282;6.642;2022-09-09T15:21:50;4.38;;;1.40;;
23181;SDS011;11759;51.282;6.642;2022-09-09T15:24:17;6.53;;;1.40;;
23181;SDS011;11759;51.282;6.642;2022-09-09T15:26:44;4.70;;;2.10;;
23181;SDS011;11759;51.282;6.642;2022-09-09T15:29:11;4.82;;;1.60;;
23181;SDS011;11759;51.282;6.642;2022-09-09T15:31:37;9.15;;;1.60;;
23181;SDS011;11759;51.282;6.642;2022-09-09T15:34:05;5.43;;;1.23;;
23181;SDS011;11759;51.282;6.642;2022-09-09T15:36:39;4.82;;;1.58;;
23181;SDS011;11759;51.282;6.642;2022-09-09T15:39:07;1.48;;;1.00;;
23181;SDS011;11759;51.282;6.642;2022-09-09T15:41:39;8.82;;;1.15;;
23181;SDS011;11759;51.282;6.642;2022-09-09T15:44:05;4.22;;;0.95;;
23181;SDS011;11759;51.282;6.642;2022-09-09T15:46:36;3.13;;;0.93;;
23181;SDS011;11759;51.282;6.642;2022-09-09T15:49:11;3.83;;;1.00;;
23181;SDS011;11759;51.282;6.642;2022-09-09T15:51:39;3.63;;;1.10;;
23181;SDS011;11759;51.282;6.642;2022-09-09T15:54:10;2.85;;;0.70;;
23181;SDS011;11759;51.282;6.642;2022-09-09T15:56:38;1.25;;;0.60;;
23181;SDS011;11759;51.282;6.642;2022-09-09T15:59:05;3.20;;;1.10;;
23181;SDS011;11759;51.282;6.642;2022-09-09T16:01:32;2.30;;;1.00;;
23181;SDS011;11759;51.282;6.642;2022-09-09T16:03:59;3.72;;;1.02;;
23181;SDS011;11759;51.282;6.642;2022-09-09T16:06:27;4.05;;;1.02;;
23181;SDS011;11759;51.282;6.642;2022-09-09T16:08:55;4.72;;;1.40;;
23181;SDS011;11759;51.282;6.642;2022-09-09T16:11:24;5.22;;;1.35;;
23181;SDS011;11759;51.282;6.642;2022-09-09T16:13:53;5.40;;;1.40;;
23181;SDS011;11759;51.282;6.642;2022-09-09T16:16:21;9.10;;;1.70;;
23181;SDS011;11759;51.282;6.642;2022-09-09T16:18:51;3.30;;;1.50;;
23181;SDS011;11759;51.282;6.642;2022-09-09T16:21:23;5.07;;;1.75;;
23181;SDS011;11759;51.282;6.642;2022-09-09T16:23:51;6.05;;;2.00;;
23181;SDS011;11759;51.282;6.642;2022-09-09T16:26:19;5.95;;;1.75;;
23181;SDS011;11759;51.282;6.642;2022-09-09T16:28:46;6.65;;;1.70;;
23181;SDS011;11759;51.282;6.642;2022-09-09T16:31:14;9.95;;;1.85;;
23181;SDS011;11759;51.282;6.642;2022-09-09T16:33:48;8.80;;;2.10;;
23181;SDS011;11759;51.282;6.642;2022-09-09T16:36:17;10.75;;;1.83;;
23181;SDS011;11759;51.282;6.642;2022-09-09T16:38:55;8.60;;;2.50;;
23181;SDS011;11759;51.282;6.642;2022-09-09T16:41:24;9.98;;;2.65;;
23181;SDS011;11759;51.282;6.642;2022-09-09T16:43:52;8.43;;;2.80;;
23181;SDS011;11759;51.282;6.642;2022-09-09T16:48:51;9.60;;;2.20;;
23181;SDS011;11759;51.282;6.642;2022-09-09T16:51:22;7.70;;;2.50;;
23181;SDS011;11759;51.282;6.642;2022-09-09T16:53:50;10.38;;;2.55;;
23181;SDS011;11759;51.282;6.642;2022-09-09T16:56:19;9.52;;;2.95;;
23181;SDS011;11759;51.282;6.642;2022-09-09T16:58:53;8.48;;;2.80;;
23181;SDS011;11759;51.282;6.642;2022-09-09T17:01:24;12.50;;;3.20;;
23181;SDS011;11759;51.282;6.642;2022-09-09T17:03:55;11.07;;;3.08;;
23181;SDS011;11759;51.282;6.642;2022-09-09T17:06:27;9.93;;;2.75;;
23181;SDS011;11759;51.282;6.642;2022-09-09T17:08:55;7.25;;;2.75;;
23181;SDS011;11759;51.282;6.642;2022-09-09T17:11:26;11.75;;;3.03;;
23181;SDS011;11759;51.282;6.642;2022-09-09T17:13:54;18.70;;;3.50;;
23181;SDS011;11759;51.282;6.642;2022-09-09T17:16:22;19.60;;;3.90;;
23181;SDS011;11759;51.282;6.642;2022-09-09T17:18:50;13.45;;;4.00;;